sensor_id;sensor_type;location;lat;lon;timestamp;pressure;altitude;pressure_sealevel;temperature;humidity
69257;BME280;56376;53.356;-1.748;2023-11-18T00:00:48;99528.28;;;6.97;100.00
69257;BME280;56376;53.356;-1.748;2023-11-18T00:03:14;99517.03;;;6.96;100.00
69257;BME280;56376;53.356;-1.748;2023-11-18T00:05:39;99521.34;;;6.97;100.00
69257;BME280;56376;53.356;-1.748;2023-11-18T00:08:05;99526.56;;;6.96;100.00
69257;BME280;56376;53.356;-1.748;2023-11-18T00:10:31;99510.13;;;6.95;100.00
69257;BME280;56376;53.356;-1.748;2023-11-18T00:12:56;99506.66;;;6.96;100.00
69257;BME280;56376;53.356;-1.748;2023-11-18T00:15:22;99494.59;;;6.93;100.00
69257;BME280;56376;53.356;-1.748;2023-11-18T00:17:47;99498.03;;;6.94;100.00
69257;BME280;56376;53.356;-1.748;2023-11-18T00:20:14;99497.13;;;6.95;100.00
69257;BME280;56376;53.356;-1.748;2023-11-18T00:22:41;99487.66;;;6.94;100.00
69257;BME280;56376;53.356;-1.748;2023-11-18T00:25:07;99484.22;;;6.92;100.00
69257;BME280;56376;53.356;-1.748;2023-11-18T00:27:34;99485.91;;;6.94;100.00
69257;BME280;56376;53.356;-1.748;2023-11-18T00:30:05;99472.91;;;6.94;100.00
69257;BME280;56376;53.356;-1.748;2023-11-18T00:32:33;99463.38;;;6.95;100.00
69257;BME280;56376;53.356;-1.748;2023-11-18T00:35:00;99459.06;;;6.96;100.00
69257;BME280;56376;53.356;-1.748;2023-11-18T00:37:26;99448.69;;;6.94;100.00
69257;BME280;56376;53.356;-1.748;2023-11-18T00:39:53;99457.41;;;6.91;100.00
69257;BME280;56376;53.356;-1.748;2023-11-18T00:42:18;99455.66;;;6.92;100.00
69257;BME280;56376;53.356;-1.748;2023-11-18T00:44:44;99455.63;;;6.93;100.00
69257;BME280;56376;53.356;-1.748;2023-11-18T00:47:09;99450.44;;;6.93;100.00
69257;BME280;56376;53.356;-1.748;2023-11-18T00:49:35;99452.97;;;6.95;100.00
69257;BME280;56376;53.356;-1.748;2023-11-18T00:52:01;99446.13;;;6.92;100.00
69257;BME280;56376;53.356;-1.748;2023-11-18T00:54:26;99438.34;;;6.92;100.00
69257;BME280;56376;53.356;-1.748;2023-11-18T00:56:52;99440.94;;;6.92;100.00
69257;BME280;56376;53.356;-1.748;2023-11-18T00:59:19;99429.75;;;6.90;100.00
69257;BME280;56376;53.356;-1.748;2023-11-18T01:01:45;99423.69;;;6.90;100.00
69257;BME280;56376;53.356;-1.748;2023-11-18T01:04:11;99410.78;;;6.87;100.00
69257;BME280;56376;53.356;-1.748;2023-11-18T01:06:36;99407.31;;;6.86;100.00
69257;BME280;56376;53.356;-1.748;2023-11-18T01:09:01;99396.19;;;6.81;100.00
69257;BME280;56376;53.356;-1.748;2023-11-18T01:11:27;99381.50;;;6.80;100.00
69257;BME280;56376;53.356;-1.748;2023-11-18T01:13:52;99376.28;;;6.80;100.00
69257;BME280;56376;53.356;-1.748;2023-11-18T01:16:21;99364.19;;;6.81;100.00
69257;BME280;56376;53.356;-1.748;2023-11-18T01:18:48;99348.63;;;6.79;100.00
69257;BME280;56376;53.356;-1.748;2023-11-18T01:21:13;99322.75;;;6.76;100.00
69257;BME280;56376;53.356;-1.748;2023-11-18T01:23:39;99320.09;;;6.78;100.00
69257;BME280;56376;53.356;-1.748;2023-11-18T01:26:07;99317.56;;;6.76;100.00
69257;BME280;56376;53.356;-1.748;2023-11-18T01:28:36;99311.56;;;6.72;100.00
69257;BME280;56376;53.356;-1.748;2023-11-18T01:31:04;99317.69;;;6.70;100.00
69257;BME280;56376;53.356;-1.748;2023-11-18T01:33:32;99323.78;;;6.70;100.00
69257;BME280;56376;53.356;-1.748;2023-11-18T01:35:58;99322.88;;;6.71;100.00
69257;BME280;56376;53.356;-1.748;2023-11-18T01:38:24;99326.38;;;6.69;100.00
69257;BME280;56376;53.356;-1.748;2023-11-18T01:40:51;99310.81;;;6.69;100.00
69257;BME280;56376;53.356;-1.748;2023-11-18T01:43:18;99309.13;;;6.68;100.00
69257;BME280;56376;53.356;-1.748;2023-11-18T01:45:44;99300.44;;;6.67;100.00
69257;BME280;56376;53.356;-1.748;2023-11-18T01:48:09;99309.91;;;6.70;100.00
69257;BME280;56376;53.356;-1.748;2023-11-18T01:50:37;99307.31;;;6.70;100.00
69257;BME280;56376;53.356;-1.748;2023-11-18T01:53:05;99303.88;;;6.69;100.00
69257;BME280;56376;53.356;-1.748;2023-11-18T01:55:31;99291.75;;;6.70;100.00
69257;BME280;56376;53.356;-1.748;2023-11-18T01:58:00;99286.56;;;6.70;100.00
69257;BME280;56376;53.356;-1.748;2023-11-18T02:00:46;99261.41;;;6.72;100.00
69257;BME280;56376;53.356;-1.748;2023-11-18T02:03:12;99251.13;;;6.69;100.00
69257;BME280;56376;53.356;-1.748;2023-11-18T02:05:38;99251.94;;;6.71;100.00
69257;BME280;56376;53.356;-1.748;2023-11-18T02:08:04;99250.19;;;6.71;100.00
69257;BME280;56376;53.356;-1.748;2023-11-18T02:10:35;99238.09;;;6.70;100.00
69257;BME280;56376;53.356;-1.748;2023-11-18T02:13:12;99239.88;;;6.68;100.00
69257;BME280;56376;53.356;-1.748;2023-11-18T02:15:38;99245.06;;;6.68;100.00
69257;BME280;56376;53.356;-1.748;2023-11-18T02:18:06;99247.69;;;6.67;100.00
69257;BME280;56376;53.356;-1.748;2023-11-18T02:20:37;99249.41;;;6.68;100.00
69257;BME280;56376;53.356;-1.748;2023-11-18T02:23:04;99247.66;;;6.68;100.00
69257;BME280;56376;53.356;-1.748;2023-11-18T02:25:32;99246.78;;;6.69;100.00
69257;BME280;56376;53.356;-1.748;2023-11-18T02:27:58;99238.91;;;6.72;100.00
69257;BME280;56376;53.356;-1.748;2023-11-18T02:30:24;99220.78;;;6.71;100.00
69257;BME280;56376;53.356;-1.748;2023-11-18T02:33:31;99225.03;;;6.74;100.00
69257;BME280;56376;53.356;-1.748;2023-11-18T02:36:13;99205.16;;;6.72;100.00
69257;BME280;56376;53.356;-1.748;2023-11-18T02:38:47;99188.72;;;6.72;100.00
69257;BME280;56376;53.356;-1.748;2023-11-18T02:41:16;99186.13;;;6.72;100.00
69257;BME280;56376;53.356;-1.748;2023-11-18T02:43:43;99179.28;;;6.69;100.00
69257;BME280;56376;53.356;-1.748;2023-11-18T02:46:10;99185.41;;;6.67;100.00
69257;BME280;56376;53.356;-1.748;2023-11-18T02:48:39;99178.53;;;6.66;100.00
69257;BME280;56376;53.356;-1.748;2023-11-18T02:51:06;99176.81;;;6.65;100.00
69257;BME280;56376;53.356;-1.748;2023-11-18T02:53:33;99174.19;;;6.66;100.00
69257;BME280;56376;53.356;-1.748;2023-11-18T02:55:59;99169.00;;;6.65;100.00
69257;BME280;56376;53.356;-1.748;2023-11-18T02:58:29;99158.63;;;6.65;100.00
69257;BME280;56376;53.356;-1.748;2023-11-18T03:00:55;99143.97;;;6.64;100.00
69257;BME280;56376;53.356;-1.748;2023-11-18T03:03:20;99133.50;;;6.67;100.00
69257;BME280;56376;53.356;-1.748;2023-11-18T03:05:46;99124.88;;;6.66;100.00
69257;BME280;56376;53.356;-1.748;2023-11-18T03:08:13;99115.31;;;6.68;100.00
69257;BME280;56376;53.356;-1.748;2023-11-18T03:10:39;99104.94;;;6.67;100.00
69257;BME280;56376;53.356;-1.748;2023-11-18T03:13:05;99097.13;;;6.68;100.00
69257;BME280;56376;53.356;-1.748;2023-11-18T03:15:32;99086.84;;;6.65;100.00
69257;BME280;56376;53.356;-1.748;2023-11-18T03:17:57;99091.13;;;6.66;100.00
69257;BME280;56376;53.356;-1.748;2023-11-18T03:20:23;99074.72;;;6.66;100.00
69257;BME280;56376;53.356;-1.748;2023-11-18T03:22:50;99074.72;;;6.66;100.00
69257;BME280;56376;53.356;-1.748;2023-11-18T03:25:17;99052.22;;;6.65;100.00
69257;BME280;56376;53.356;-1.748;2023-11-18T03:27:43;99039.34;;;6.62;100.00
69257;BME280;56376;53.356;-1.748;2023-11-18T03:30:10;99047.13;;;6.62;100.00
69257;BME280;56376;53.356;-1.748;2023-11-18T03:32:36;99047.97;;;6.62;100.00
69257;BME280;56376;53.356;-1.748;2023-11-18T03:35:06;99037.56;;;6.64;100.00
69257;BME280;56376;53.356;-1.748;2023-11-18T03:37:38;99036.75;;;6.62;100.00
69257;BME280;56376;53.356;-1.748;2023-11-18T03:40:11;99022.09;;;6.61;100.00
69257;BME280;56376;53.356;-1.748;2023-11-18T03:42:37;99003.06;;;6.60;100.00
69257;BME280;56376;53.356;-1.748;2023-11-18T03:45:03;99001.34;;;6.59;100.00
69257;BME280;56376;53.356;-1.748;2023-11-18T03:47:29;98990.09;;;6.60;100.00
69257;BME280;56376;53.356;-1.748;2023-11-18T03:49:57;98985.69;;;6.62;100.00
69257;BME280;56376;53.356;-1.748;2023-11-18T03:52:23;98986.50;;;6.64;100.00
69257;BME280;56376;53.356;-1.748;2023-11-18T03:54:49;98971.00;;;6.63;100.00
69257;BME280;56376;53.356;-1.748;2023-11-18T03:57:15;98970.09;;;6.64;100.00
69257;BME280;56376;53.356;-1.748;2023-11-18T03:59:40;98953.75;;;6.60;100.00
69257;BME280;56376;53.356;-1.748;2023-11-18T04:02:08;98949.34;;;6.62;100.00
69257;BME280;56376;53.356;-1.748;2023-11-18T04:04:38;98936.44;;;6.61;100.00
69257;BME280;56376;53.356;-1.748;2023-11-18T04:07:04;98919.97;;;6.62;100.00
69257;BME280;56376;53.356;-1.748;2023-11-18T04:09:31;98919.09;;;6.63;100.00
69257;BME280;56376;53.356;-1.748;2023-11-18T04:11:56;98935.50;;;6.63;100.00
69257;BME280;56376;53.356;-1.748;2023-11-18T04:14:22;98919.97;;;6.62;100.00
69257;BME280;56376;53.356;-1.748;2023-11-18T04:16:50;98913.84;;;6.64;100.00
69257;BME280;56376;53.356;-1.748;2023-11-18T04:19:17;98909.50;;;6.65;100.00
69257;BME280;56376;53.356;-1.748;2023-11-18T04:21:43;98894.78;;;6.65;100.00
69257;BME280;56376;53.356;-1.748;2023-11-18T04:24:12;98887.00;;;6.65;100.00
69257;BME280;56376;53.356;-1.748;2023-11-18T04:26:38;98873.22;;;6.63;100.00
69257;BME280;56376;53.356;-1.748;2023-11-18T04:29:04;98873.97;;;6.67;100.00
69257;BME280;56376;53.356;-1.748;2023-11-18T04:31:30;98872.19;;;6.69;100.00
69257;BME280;56376;53.356;-1.748;2023-11-18T04:33:55;98859.19;;;6.69;100.00
69257;BME280;56376;53.356;-1.748;2023-11-18T04:36:21;98852.25;;;6.69;100.00
69257;BME280;56376;53.356;-1.748;2023-11-18T04:38:47;98866.06;;;6.70;100.00
69257;BME280;56376;53.356;-1.748;2023-11-18T04:41:14;98844.47;;;6.69;100.00
69257;BME280;56376;53.356;-1.748;2023-11-18T04:43:39;98831.50;;;6.69;100.00
69257;BME280;56376;53.356;-1.748;2023-11-18T04:46:07;98817.56;;;6.72;100.00
69257;BME280;56376;53.356;-1.748;2023-11-18T04:48:34;98803.66;;;6.75;100.00
69257;BME280;56376;53.356;-1.748;2023-11-18T04:51:02;98805.41;;;6.74;100.00
69257;BME280;56376;53.356;-1.748;2023-11-18T04:53:28;98796.69;;;6.75;100.00
69257;BME280;56376;53.356;-1.748;2023-11-18T04:55:53;98789.78;;;6.76;100.00
69257;BME280;56376;53.356;-1.748;2023-11-18T04:58:19;98803.59;;;6.76;100.00
69257;BME280;56376;53.356;-1.748;2023-11-18T05:00:44;98796.69;;;6.75;100.00
69257;BME280;56376;53.356;-1.748;2023-11-18T05:03:09;98797.47;;;6.79;100.00
69257;BME280;56376;53.356;-1.748;2023-11-18T05:05:36;98788.84;;;6.78;100.00
69257;BME280;56376;53.356;-1.748;2023-11-18T05:08:06;98772.34;;;6.79;100.00
69257;BME280;56376;53.356;-1.748;2023-11-18T05:10:33;98765.50;;;6.77;100.00
69257;BME280;56376;53.356;-1.748;2023-11-18T05:12:59;98762.81;;;6.80;100.00
69257;BME280;56376;53.356;-1.748;2023-11-18T05:15:24;98760.28;;;6.78;100.00
69257;BME280;56376;53.356;-1.748;2023-11-18T05:17:51;98753.28;;;6.80;100.00
69257;BME280;56376;53.356;-1.748;2023-11-18T05:20:16;98756.75;;;6.81;100.00
69257;BME280;56376;53.356;-1.748;2023-11-18T05:22:43;98758.44;;;6.82;100.00
69257;BME280;56376;53.356;-1.748;2023-11-18T05:25:08;98749.78;;;6.81;100.00
69257;BME280;56376;53.356;-1.748;2023-11-18T05:27:35;98739.31;;;6.84;100.00
69257;BME280;56376;53.356;-1.748;2023-11-18T05:30:02;98738.38;;;6.85;100.00
69257;BME280;56376;53.356;-1.748;2023-11-18T05:32:28;98733.13;;;6.88;100.00
69257;BME280;56376;53.356;-1.748;2023-11-18T05:34:54;98745.25;;;6.88;100.00
69257;BME280;56376;53.356;-1.748;2023-11-18T05:37:22;98736.56;;;6.89;100.00
69257;BME280;56376;53.356;-1.748;2023-11-18T05:39:50;98733.91;;;6.90;100.00
69257;BME280;56376;53.356;-1.748;2023-11-18T05:42:27;98716.50;;;6.92;100.00
69257;BME280;56376;53.356;-1.748;2023-11-18T05:44:52;98713.88;;;6.94;100.00
69257;BME280;56376;53.356;-1.748;2023-11-18T05:47:25;98705.97;;;6.97;100.00
69257;BME280;56376;53.356;-1.748;2023-11-18T05:49:52;98699.91;;;6.98;100.00
69257;BME280;56376;53.356;-1.748;2023-11-18T05:52:17;98702.50;;;6.98;100.00
69257;BME280;56376;53.356;-1.748;2023-11-18T05:54:42;98692.03;;;7.00;100.00
69257;BME280;56376;53.356;-1.748;2023-11-18T05:57:08;98688.50;;;7.02;100.00
69257;BME280;56376;53.356;-1.748;2023-11-18T05:59:34;98681.53;;;7.03;100.00
69257;BME280;56376;53.356;-1.748;2023-11-18T06:01:59;98669.44;;;7.03;100.00
69257;BME280;56376;53.356;-1.748;2023-11-18T06:04:25;98649.50;;;7.04;100.00
69257;BME280;56376;53.356;-1.748;2023-11-18T06:06:50;98645.09;;;7.06;100.00
69257;BME280;56376;53.356;-1.748;2023-11-18T06:09:17;98633.69;;;7.10;100.00
69257;BME280;56376;53.356;-1.748;2023-11-18T06:11:53;98625.78;;;7.13;100.00
69257;BME280;56376;53.356;-1.748;2023-11-18T06:14:20;98620.53;;;7.14;100.00
69257;BME280;56376;53.356;-1.748;2023-11-18T06:16:47;98623.97;;;7.15;100.00
69257;BME280;56376;53.356;-1.748;2023-11-18T06:19:14;98624.75;;;7.17;100.00
69257;BME280;56376;53.356;-1.748;2023-11-18T06:21:40;98619.53;;;7.19;100.00
69257;BME280;56376;53.356;-1.748;2023-11-18T06:24:06;98622.97;;;7.19;100.00
69257;BME280;56376;53.356;-1.748;2023-11-18T06:26:31;98621.16;;;7.21;100.00
69257;BME280;56376;53.356;-1.748;2023-11-18T06:29:00;98615.06;;;7.22;100.00
69257;BME280;56376;53.356;-1.748;2023-11-18T06:31:25;98601.91;;;7.27;100.00
69257;BME280;56376;53.356;-1.748;2023-11-18T06:33:51;98585.31;;;7.31;100.00
69257;BME280;56376;53.356;-1.748;2023-11-18T06:36:18;98583.47;;;7.33;100.00
69257;BME280;56376;53.356;-1.748;2023-11-18T06:38:44;98573.94;;;7.33;100.00
69257;BME280;56376;53.356;-1.748;2023-11-18T06:41:11;98560.97;;;7.33;100.00
69257;BME280;56376;53.356;-1.748;2023-11-18T06:43:43;98554.81;;;7.36;100.00
69257;BME280;56376;53.356;-1.748;2023-11-18T06:46:24;98537.44;;;7.36;100.00
69257;BME280;56376;53.356;-1.748;2023-11-18T06:48:53;98546.03;;;7.39;100.00
69257;BME280;56376;53.356;-1.748;2023-11-18T06:51:20;98543.38;;;7.40;100.00
69257;BME280;56376;53.356;-1.748;2023-11-18T06:53:53;98540.63;;;7.43;100.00
69257;BME280;56376;53.356;-1.748;2023-11-18T06:56:20;98543.19;;;7.45;100.00
69257;BME280;56376;53.356;-1.748;2023-11-18T06:58:49;98529.19;;;7.49;100.00
69257;BME280;56376;53.356;-1.748;2023-11-18T07:01:14;98537.72;;;7.51;100.00
69257;BME280;56376;53.356;-1.748;2023-11-18T07:03:44;98535.94;;;7.53;100.00
69257;BME280;56376;53.356;-1.748;2023-11-18T07:06:10;98518.59;;;7.53;100.00
69257;BME280;56376;53.356;-1.748;2023-11-18T07:08:40;98531.47;;;7.56;100.00
69257;BME280;56376;53.356;-1.748;2023-11-18T07:11:05;98534.00;;;7.58;100.00
69257;BME280;56376;53.356;-1.748;2023-11-18T07:13:32;98533.03;;;7.61;100.00
69257;BME280;56376;53.356;-1.748;2023-11-18T07:16:00;98510.41;;;7.63;100.00
69257;BME280;56376;53.356;-1.748;2023-11-18T07:18:28;98505.16;;;7.64;100.00
69257;BME280;56376;53.356;-1.748;2023-11-18T07:20:56;98511.03;;;7.69;100.00
69257;BME280;56376;53.356;-1.748;2023-11-18T07:23:22;98515.25;;;7.72;100.00
69257;BME280;56376;53.356;-1.748;2023-11-18T07:25:48;98498.59;;;7.76;100.00
69257;BME280;56376;53.356;-1.748;2023-11-18T07:28:13;98488.16;;;7.77;100.00
69257;BME280;56376;53.356;-1.748;2023-11-18T07:30:43;98503.47;;;7.84;100.00
69257;BME280;56376;53.356;-1.748;2023-11-18T07:33:18;98506.81;;;7.87;100.00
69257;BME280;56376;53.356;-1.748;2023-11-18T07:35:46;98504.16;;;7.89;100.00
69257;BME280;56376;53.356;-1.748;2023-11-18T07:38:12;98494.47;;;7.92;100.00
69257;BME280;56376;53.356;-1.748;2023-11-18T07:40:38;98483.81;;;7.98;100.00
69257;BME280;56376;53.356;-1.748;2023-11-18T07:43:13;98476.00;;;7.98;100.00
69257;BME280;56376;53.356;-1.748;2023-11-18T07:45:39;98474.97;;;8.02;100.00
69257;BME280;56376;53.356;-1.748;2023-11-18T07:48:09;98466.06;;;8.08;100.00
69257;BME280;56376;53.356;-1.748;2023-11-18T07:50:36;98488.25;;;8.17;100.00
69257;BME280;56376;53.356;-1.748;2023-11-18T07:53:02;98472.44;;;8.21;100.00
69257;BME280;56376;53.356;-1.748;2023-11-18T07:55:31;98467.78;;;8.28;100.00
69257;BME280;56376;53.356;-1.748;2023-11-18T07:58:02;98462.38;;;8.33;100.00
69257;BME280;56376;53.356;-1.748;2023-11-18T08:00:30;98467.28;;;8.40;100.00
69257;BME280;56376;53.356;-1.748;2023-11-18T08:02:58;98475.94;;;8.41;100.00
69257;BME280;56376;53.356;-1.748;2023-11-18T08:05:26;98465.63;;;8.39;100.00
69257;BME280;56376;53.356;-1.748;2023-11-18T08:07:51;98467.16;;;8.43;100.00
69257;BME280;56376;53.356;-1.748;2023-11-18T08:10:19;98470.53;;;8.45;100.00
69257;BME280;56376;53.356;-1.748;2023-11-18T08:12:47;98473.91;;;8.48;100.00
69257;BME280;56376;53.356;-1.748;2023-11-18T08:15:13;98468.63;;;8.49;100.00
69257;BME280;56376;53.356;-1.748;2023-11-18T08:17:39;98469.28;;;8.54;100.00
69257;BME280;56376;53.356;-1.748;2023-11-18T08:20:06;98476.03;;;8.58;100.00
69257;BME280;56376;53.356;-1.748;2023-11-18T08:22:41;98471.59;;;8.60;100.00
69257;BME280;56376;53.356;-1.748;2023-11-18T08:25:09;98461.03;;;8.63;100.00
69257;BME280;56376;53.356;-1.748;2023-11-18T08:27:35;98479.13;;;8.66;100.00
69257;BME280;56376;53.356;-1.748;2023-11-18T08:30:03;98465.91;;;8.71;100.00
69257;BME280;56376;53.356;-1.748;2023-11-18T08:32:37;98457.94;;;8.74;100.00
69257;BME280;56376;53.356;-1.748;2023-11-18T08:35:04;98455.34;;;8.74;100.00
69257;BME280;56376;53.356;-1.748;2023-11-18T08:37:33;98471.84;;;8.75;100.00
69257;BME280;56376;53.356;-1.748;2023-11-18T08:40:02;98477.69;;;8.80;100.00
69257;BME280;56376;53.356;-1.748;2023-11-18T08:42:28;98469.78;;;8.81;100.00
69257;BME280;56376;53.356;-1.748;2023-11-18T08:44:54;98460.13;;;8.83;100.00
69257;BME280;56376;53.356;-1.748;2023-11-18T08:47:20;98460.72;;;8.90;100.00
69257;BME280;56376;53.356;-1.748;2023-11-18T08:49:47;98455.28;;;8.95;100.00
69257;BME280;56376;53.356;-1.748;2023-11-18T08:52:12;98442.19;;;8.96;100.00
69257;BME280;56376;53.356;-1.748;2023-11-18T08:54:39;98445.41;;;9.01;100.00
69257;BME280;56376;53.356;-1.748;2023-11-18T08:57:24;98421.81;;;9.04;100.00
69257;BME280;56376;53.356;-1.748;2023-11-18T08:59:51;98425.97;;;9.08;100.00
69257;BME280;56376;53.356;-1.748;2023-11-18T09:02:19;98436.09;;;9.15;100.00
69257;BME280;56376;53.356;-1.748;2023-11-18T09:04:49;98436.88;;;9.17;100.00
69257;BME280;56376;53.356;-1.748;2023-11-18T09:07:15;98427.16;;;9.20;100.00
69257;BME280;56376;53.356;-1.748;2023-11-18T09:09:41;98425.16;;;9.25;100.00
69257;BME280;56376;53.356;-1.748;2023-11-18T09:12:06;98433.03;;;9.60;100.00
69257;BME280;56376;53.356;-1.748;2023-11-18T09:14:33;98420.72;;;9.80;100.00
69257;BME280;56376;53.356;-1.748;2023-11-18T09:16:59;98423.44;;;9.78;100.00
69257;BME280;56376;53.356;-1.748;2023-11-18T09:19:27;98409.63;;;9.76;100.00
69257;BME280;56376;53.356;-1.748;2023-11-18T09:21:52;98401.97;;;9.73;100.00
69257;BME280;56376;53.356;-1.748;2023-11-18T09:24:19;98409.84;;;9.71;100.00
69257;BME280;56376;53.356;-1.748;2023-11-18T09:26:48;98399.41;;;9.71;100.00
69257;BME280;56376;53.356;-1.748;2023-11-18T09:29:35;98414.91;;;9.74;100.00
69257;BME280;56376;53.356;-1.748;2023-11-18T09:32:00;98405.41;;;9.73;100.00
69257;BME280;56376;53.356;-1.748;2023-11-18T09:34:31;98411.31;;;9.77;100.00
69257;BME280;56376;53.356;-1.748;2023-11-18T09:36:58;98392.16;;;9.78;100.00
69257;BME280;56376;53.356;-1.748;2023-11-18T09:39:25;98385.06;;;9.80;100.00
69257;BME280;56376;53.356;-1.748;2023-11-18T09:42:04;98394.53;;;9.83;100.00
69257;BME280;56376;53.356;-1.748;2023-11-18T09:44:30;98384.94;;;9.83;100.00
69257;BME280;56376;53.356;-1.748;2023-11-18T09:46:57;98390.91;;;9.85;100.00
69257;BME280;56376;53.356;-1.748;2023-11-18T09:49:32;98406.41;;;9.88;100.00
69257;BME280;56376;53.356;-1.748;2023-11-18T09:52:05;98399.06;;;9.95;100.00
69257;BME280;56376;53.356;-1.748;2023-11-18T09:55:02;98403.28;;;9.97;100.00
69257;BME280;56376;53.356;-1.748;2023-11-18T09:57:44;98395.94;;;10.06;100.00
69257;BME280;56376;53.356;-1.748;2023-11-18T10:00:15;98414.81;;;10.11;100.00
69257;BME280;56376;53.356;-1.748;2023-11-18T10:02:58;98410.19;;;10.16;100.00
69257;BME280;56376;53.356;-1.748;2023-11-18T10:05:26;98405.72;;;10.18;100.00
69257;BME280;56376;53.356;-1.748;2023-11-18T10:07:53;98409.00;;;10.22;100.00
69257;BME280;56376;53.356;-1.748;2023-11-18T10:10:21;98407.94;;;10.26;100.00
69257;BME280;56376;53.356;-1.748;2023-11-18T10:12:47;98400.88;;;10.28;100.00
69257;BME280;56376;53.356;-1.748;2023-11-18T10:15:23;98394.59;;;10.32;100.00
69257;BME280;56376;53.356;-1.748;2023-11-18T10:17:50;98363.94;;;10.35;100.00
69257;BME280;56376;53.356;-1.748;2023-11-18T10:20:44;98366.22;;;10.42;100.00
69257;BME280;56376;53.356;-1.748;2023-11-18T10:23:12;98365.97;;;10.46;100.00
69257;BME280;56376;53.356;-1.748;2023-11-18T10:25:55;98362.25;;;10.50;100.00
69257;BME280;56376;53.356;-1.748;2023-11-18T10:28:35;98371.53;;;10.56;100.00
69257;BME280;56376;53.356;-1.748;2023-11-18T10:31:05;98380.97;;;10.58;100.00
69257;BME280;56376;53.356;-1.748;2023-11-18T10:33:32;98374.81;;;10.59;100.00
69257;BME280;56376;53.356;-1.748;2023-11-18T10:35:59;98374.56;;;10.64;100.00
69257;BME280;56376;53.356;-1.748;2023-11-18T10:38:33;98385.50;;;10.71;100.00
69257;BME280;56376;53.356;-1.748;2023-11-18T10:41:04;98383.59;;;10.74;100.00
69257;BME280;56376;53.356;-1.748;2023-11-18T10:43:32;98383.41;;;10.77;100.00
69257;BME280;56376;53.356;-1.748;2023-11-18T10:48:32;98372.53;;;10.85;100.00
69257;BME280;56376;53.356;-1.748;2023-11-18T10:50:57;98385.28;;;10.91;100.00
69257;BME280;56376;53.356;-1.748;2023-11-18T10:53:24;98376.50;;;10.92;100.00
69257;BME280;56376;53.356;-1.748;2023-11-18T10:55:51;98375.31;;;10.98;100.00
69257;BME280;56376;53.356;-1.748;2023-11-18T10:58:19;98393.50;;;10.99;100.00
69257;BME280;56376;53.356;-1.748;2023-11-18T11:00:51;98386.44;;;11.01;100.00
69257;BME280;56376;53.356;-1.748;2023-11-18T11:03:21;98376.81;;;11.02;100.00
69257;BME280;56376;53.356;-1.748;2023-11-18T11:05:49;98375.88;;;11.03;100.00
69257;BME280;56376;53.356;-1.748;2023-11-18T11:08:15;98374.78;;;11.07;100.00
69257;BME280;56376;53.356;-1.748;2023-11-18T11:10:44;98374.88;;;11.05;100.00
69257;BME280;56376;53.356;-1.748;2023-11-18T11:13:10;98369.38;;;11.10;100.00
69257;BME280;56376;53.356;-1.748;2023-11-18T11:15:42;98369.88;;;11.17;100.00
69257;BME280;56376;53.356;-1.748;2023-11-18T11:18:12;98385.88;;;11.26;100.00
69257;BME280;56376;53.356;-1.748;2023-11-18T11:21:03;98367.53;;;11.42;100.00
69257;BME280;56376;53.356;-1.748;2023-11-18T11:24:01;98355.53;;;11.54;100.00
69257;BME280;56376;53.356;-1.748;2023-11-18T11:26:50;98352.47;;;11.62;100.00
69257;BME280;56376;53.356;-1.748;2023-11-18T11:29:40;98343.41;;;11.67;100.00
69257;BME280;56376;53.356;-1.748;2023-11-18T11:32:59;98337.78;;;11.74;100.00
69257;BME280;56376;53.356;-1.748;2023-11-18T11:35:24;98332.28;;;11.78;100.00
69257;BME280;56376;53.356;-1.748;2023-11-18T11:37:53;98323.41;;;11.81;100.00
69257;BME280;56376;53.356;-1.748;2023-11-18T11:40:31;98339.22;;;11.79;100.00
69257;BME280;56376;53.356;-1.748;2023-11-18T11:42:57;98333.03;;;11.80;100.00
69257;BME280;56376;53.356;-1.748;2023-11-18T11:45:27;98341.66;;;11.82;100.00
69257;BME280;56376;53.356;-1.748;2023-11-18T11:47:57;98344.06;;;11.85;100.00
69257;BME280;56376;53.356;-1.748;2023-11-18T11:53:22;98328.44;;;11.84;100.00
69257;BME280;56376;53.356;-1.748;2023-11-18T11:55:52;98331.81;;;11.86;100.00
69257;BME280;56376;53.356;-1.748;2023-11-18T11:58:35;98341.41;;;11.87;100.00
69257;BME280;56376;53.356;-1.748;2023-11-18T12:01:25;98327.84;;;11.95;100.00
69257;BME280;56376;53.356;-1.748;2023-11-18T12:03:57;98337.00;;;12.02;100.00
69257;BME280;56376;53.356;-1.748;2023-11-18T12:06:24;98328.97;;;12.05;100.00
69257;BME280;56376;53.356;-1.748;2023-11-18T12:08:53;98339.53;;;12.03;100.00
69257;BME280;56376;53.356;-1.748;2023-11-18T12:11:19;98331.69;;;12.03;100.00
69257;BME280;56376;53.356;-1.748;2023-11-18T12:14:06;98313.56;;;12.00;100.00
69257;BME280;56376;53.356;-1.748;2023-11-18T12:17:00;98318.59;;;12.03;100.00
69257;BME280;56376;53.356;-1.748;2023-11-18T12:22:20;98317.75;;;12.03;100.00
69257;BME280;56376;53.356;-1.748;2023-11-18T12:27:41;98329.06;;;12.03;100.00
69257;BME280;56376;53.356;-1.748;2023-11-18T12:35:24;98331.69;;;12.03;100.00
69257;BME280;56376;53.356;-1.748;2023-11-18T12:43:16;98308.94;;;12.18;100.00
69257;BME280;56376;53.356;-1.748;2023-11-18T12:45:53;98324.38;;;12.23;100.00
69257;BME280;56376;53.356;-1.748;2023-11-18T12:48:29;98339.88;;;12.26;100.00
69257;BME280;56376;53.356;-1.748;2023-11-18T12:50:57;98334.66;;;12.26;100.00
69257;BME280;56376;53.356;-1.748;2023-11-18T12:53:24;98334.38;;;12.30;100.00
69257;BME280;56376;53.356;-1.748;2023-11-18T12:55:52;98309.78;;;12.33;100.00
69257;BME280;56376;53.356;-1.748;2023-11-18T12:58:17;98311.63;;;12.31;100.00
69257;BME280;56376;53.356;-1.748;2023-11-18T13:00:44;98317.72;;;12.31;100.00
69257;BME280;56376;53.356;-1.748;2023-11-18T13:03:11;98321.00;;;12.35;100.00
69257;BME280;56376;53.356;-1.748;2023-11-18T13:05:43;98319.41;;;12.32;100.00
69257;BME280;56376;53.356;-1.748;2023-11-18T13:08:08;98305.16;;;12.37;100.00
69257;BME280;56376;53.356;-1.748;2023-11-18T13:10:35;98303.31;;;12.39;100.00
69257;BME280;56376;53.356;-1.748;2023-11-18T13:13:01;98295.44;;;12.39;100.00
69257;BME280;56376;53.356;-1.748;2023-11-18T13:15:27;98294.50;;;12.40;100.00
69257;BME280;56376;53.356;-1.748;2023-11-18T13:18:00;98303.94;;;12.42;100.00